sensor_id;sensor_type;location;lat;lon;timestamp;P1;durP1;ratioP1;P2;durP2;ratioP2
74749;SDS011;63269;53.330;-6.288;2023-08-12T00:01:38;11.82;;;3.22;;
74749;SDS011;63269;53.330;-6.288;2023-08-12T00:04:04;11.52;;;3.15;;
74749;SDS011;63269;53.330;-6.288;2023-08-12T00:06:29;12.55;;;3.58;;
74749;SDS011;63269;53.330;-6.288;2023-08-12T00:08:55;11.05;;;3.35;;
74749;SDS011;63269;53.330;-6.288;2023-08-12T00:11:20;14.88;;;3.05;;
74749;SDS011;63269;53.330;-6.288;2023-08-12T00:13:46;9.75;;;2.80;;
74749;SDS011;63269;53.330;-6.288;2023-08-12T00:16:11;8.45;;;2.88;;
74749;SDS011;63269;53.330;-6.288;2023-08-12T00:18:36;10.48;;;3.15;;
74749;SDS011;63269;53.330;-6.288;2023-08-12T00:21:08;10.48;;;2.92;;
74749;SDS011;63269;53.330;-6.288;2023-08-12T00:23:38;9.80;;;3.00;;
74749;SDS011;63269;53.330;-6.288;2023-08-12T00:26:09;9.73;;;3.13;;
74749;SDS011;63269;53.330;-6.288;2023-08-12T00:28:35;8.43;;;2.90;;
74749;SDS011;63269;53.330;-6.288;2023-08-12T00:31:00;13.07;;;2.95;;
74749;SDS011;63269;53.330;-6.288;2023-08-12T00:33:25;11.75;;;2.83;;
74749;SDS011;63269;53.330;-6.288;2023-08-12T00:35:51;10.85;;;3.28;;
74749;SDS011;63269;53.330;-6.288;2023-08-12T00:38:16;10.55;;;3.47;;
74749;SDS011;63269;53.330;-6.288;2023-08-12T00:40:42;14.20;;;3.55;;
74749;SDS011;63269;53.330;-6.288;2023-08-12T00:43:07;13.18;;;2.97;;
74749;SDS011;63269;53.330;-6.288;2023-08-12T00:45:34;11.18;;;2.22;;
74749;SDS011;63269;53.330;-6.288;2023-08-12T00:48:00;11.75;;;2.72;;
74749;SDS011;63269;53.330;-6.288;2023-08-12T00:50:27;10.75;;;2.70;;
74749;SDS011;63269;53.330;-6.288;2023-08-12T00:52:53;7.22;;;2.33;;
74749;SDS011;63269;53.330;-6.288;2023-08-12T00:55:19;9.93;;;2.60;;
74749;SDS011;63269;53.330;-6.288;2023-08-12T00:57:45;12.85;;;3.58;;
74749;SDS011;63269;53.330;-6.288;2023-08-12T01:00:11;7.43;;;2.17;;
74749;SDS011;63269;53.330;-6.288;2023-08-12T01:02:37;14.25;;;3.33;;
74749;SDS011;63269;53.330;-6.288;2023-08-12T01:05:03;9.35;;;3.22;;
74749;SDS011;63269;53.330;-6.288;2023-08-12T01:07:29;9.65;;;2.53;;
74749;SDS011;63269;53.330;-6.288;2023-08-12T01:09:54;14.40;;;2.72;;
74749;SDS011;63269;53.330;-6.288;2023-08-12T01:12:24;11.20;;;3.22;;
74749;SDS011;63269;53.330;-6.288;2023-08-12T01:15:07;11.25;;;3.28;;
74749;SDS011;63269;53.330;-6.288;2023-08-12T01:17:36;11.57;;;2.97;;
74749;SDS011;63269;53.330;-6.288;2023-08-12T01:20:03;6.53;;;2.25;;
74749;SDS011;63269;53.330;-6.288;2023-08-12T01:22:37;8.48;;;2.92;;
74749;SDS011;63269;53.330;-6.288;2023-08-12T01:25:06;9.55;;;2.70;;
74749;SDS011;63269;53.330;-6.288;2023-08-12T01:27:34;8.57;;;2.50;;
74749;SDS011;63269;53.330;-6.288;2023-08-12T01:30:00;10.02;;;2.55;;
74749;SDS011;63269;53.330;-6.288;2023-08-12T01:32:32;7.03;;;2.50;;
74749;SDS011;63269;53.330;-6.288;2023-08-12T01:37:42;9.05;;;2.80;;
74749;SDS011;63269;53.330;-6.288;2023-08-12T01:40:08;11.40;;;2.50;;
74749;SDS011;63269;53.330;-6.288;2023-08-12T01:42:35;11.02;;;3.13;;
74749;SDS011;63269;53.330;-6.288;2023-08-12T01:45:02;8.75;;;2.58;;
74749;SDS011;63269;53.330;-6.288;2023-08-12T01:47:28;8.93;;;2.72;;
74749;SDS011;63269;53.330;-6.288;2023-08-12T01:49:54;10.65;;;3.55;;
74749;SDS011;63269;53.330;-6.288;2023-08-12T01:52:20;8.75;;;2.85;;
74749;SDS011;63269;53.330;-6.288;2023-08-12T01:54:46;7.57;;;2.65;;
74749;SDS011;63269;53.330;-6.288;2023-08-12T01:57:11;7.75;;;2.30;;
74749;SDS011;63269;53.330;-6.288;2023-08-12T01:59:37;10.45;;;2.67;;
74749;SDS011;63269;53.330;-6.288;2023-08-12T02:02:03;6.97;;;2.95;;
74749;SDS011;63269;53.330;-6.288;2023-08-12T02:04:29;6.05;;;2.42;;
74749;SDS011;63269;53.330;-6.288;2023-08-12T02:06:55;10.40;;;2.50;;
74749;SDS011;63269;53.330;-6.288;2023-08-12T02:09:21;7.25;;;2.30;;
74749;SDS011;63269;53.330;-6.288;2023-08-12T02:11:47;7.03;;;2.35;;
74749;SDS011;63269;53.330;-6.288;2023-08-12T02:14:13;7.82;;;2.03;;
74749;SDS011;63269;53.330;-6.288;2023-08-12T02:16:38;8.02;;;2.13;;
74749;SDS011;63269;53.330;-6.288;2023-08-12T02:19:03;6.15;;;2.30;;
74749;SDS011;63269;53.330;-6.288;2023-08-12T02:21:29;8.45;;;2.63;;
74749;SDS011;63269;53.330;-6.288;2023-08-12T02:23:54;7.28;;;2.47;;
74749;SDS011;63269;53.330;-6.288;2023-08-12T02:26:20;6.88;;;2.65;;
74749;SDS011;63269;53.330;-6.288;2023-08-12T02:28:45;7.68;;;2.13;;
74749;SDS011;63269;53.330;-6.288;2023-08-12T02:31:11;7.75;;;2.22;;
74749;SDS011;63269;53.330;-6.288;2023-08-12T02:33:36;6.78;;;2.00;;
74749;SDS011;63269;53.330;-6.288;2023-08-12T02:36:02;7.40;;;2.35;;
74749;SDS011;63269;53.330;-6.288;2023-08-12T02:38:27;4.55;;;2.05;;
74749;SDS011;63269;53.330;-6.288;2023-08-12T02:40:53;5.00;;;2.10;;
74749;SDS011;63269;53.330;-6.288;2023-08-12T02:43:18;5.03;;;1.65;;
74749;SDS011;63269;53.330;-6.288;2023-08-12T02:45:44;4.85;;;1.27;;
74749;SDS011;63269;53.330;-6.288;2023-08-12T02:48:09;8.55;;;2.80;;
74749;SDS011;63269;53.330;-6.288;2023-08-12T02:50:35;6.05;;;1.90;;
74749;SDS011;63269;53.330;-6.288;2023-08-12T02:53:01;5.45;;;1.80;;
74749;SDS011;63269;53.330;-6.288;2023-08-12T02:55:27;4.70;;;1.65;;
74749;SDS011;63269;53.330;-6.288;2023-08-12T02:57:52;4.13;;;1.60;;
74749;SDS011;63269;53.330;-6.288;2023-08-12T03:00:18;4.78;;;1.90;;
74749;SDS011;63269;53.330;-6.288;2023-08-12T03:02:44;5.35;;;1.73;;
74749;SDS011;63269;53.330;-6.288;2023-08-12T03:05:09;4.97;;;1.80;;
74749;SDS011;63269;53.330;-6.288;2023-08-12T03:07:35;5.50;;;1.42;;
74749;SDS011;63269;53.330;-6.288;2023-08-12T03:10:00;4.93;;;1.75;;
74749;SDS011;63269;53.330;-6.288;2023-08-12T03:12:26;4.00;;;1.45;;
74749;SDS011;63269;53.330;-6.288;2023-08-12T03:14:51;5.75;;;1.65;;
74749;SDS011;63269;53.330;-6.288;2023-08-12T03:17:17;7.43;;;2.33;;
74749;SDS011;63269;53.330;-6.288;2023-08-12T03:19:42;6.07;;;1.67;;
74749;SDS011;63269;53.330;-6.288;2023-08-12T03:22:08;4.25;;;1.35;;
74749;SDS011;63269;53.330;-6.288;2023-08-12T03:24:34;4.40;;;1.58;;
74749;SDS011;63269;53.330;-6.288;2023-08-12T03:26:59;4.50;;;1.35;;
74749;SDS011;63269;53.330;-6.288;2023-08-12T03:29:25;4.90;;;1.55;;
74749;SDS011;63269;53.330;-6.288;2023-08-12T03:31:50;4.85;;;1.95;;
74749;SDS011;63269;53.330;-6.288;2023-08-12T03:34:15;3.53;;;1.27;;
74749;SDS011;63269;53.330;-6.288;2023-08-12T03:36:41;6.07;;;1.77;;
74749;SDS011;63269;53.330;-6.288;2023-08-12T03:39:06;5.13;;;1.52;;
74749;SDS011;63269;53.330;-6.288;2023-08-12T03:41:32;4.85;;;1.60;;
74749;SDS011;63269;53.330;-6.288;2023-08-12T03:43:57;2.67;;;1.38;;
74749;SDS011;63269;53.330;-6.288;2023-08-12T03:46:23;5.38;;;1.60;;
74749;SDS011;63269;53.330;-6.288;2023-08-12T03:48:48;5.25;;;1.65;;
74749;SDS011;63269;53.330;-6.288;2023-08-12T03:51:14;6.95;;;1.80;;
74749;SDS011;63269;53.330;-6.288;2023-08-12T03:53:39;3.85;;;1.80;;
74749;SDS011;63269;53.330;-6.288;2023-08-12T03:56:04;6.28;;;1.48;;
74749;SDS011;63269;53.330;-6.288;2023-08-12T03:58:30;5.85;;;1.35;;
74749;SDS011;63269;53.330;-6.288;2023-08-12T04:00:55;6.32;;;1.90;;
74749;SDS011;63269;53.330;-6.288;2023-08-12T04:03:21;3.53;;;1.33;;
74749;SDS011;63269;53.330;-6.288;2023-08-12T04:05:47;5.43;;;1.50;;
74749;SDS011;63269;53.330;-6.288;2023-08-12T04:08:13;6.85;;;2.50;;
74749;SDS011;63269;53.330;-6.288;2023-08-12T04:10:39;3.83;;;1.00;;
74749;SDS011;63269;53.330;-6.288;2023-08-12T04:13:04;5.03;;;1.60;;
74749;SDS011;63269;53.330;-6.288;2023-08-12T04:15:31;5.53;;;1.60;;
74749;SDS011;63269;53.330;-6.288;2023-08-12T04:17:56;3.83;;;1.10;;
74749;SDS011;63269;53.330;-6.288;2023-08-12T04:20:23;5.20;;;1.55;;
74749;SDS011;63269;53.330;-6.288;2023-08-12T04:22:49;3.70;;;1.38;;
74749;SDS011;63269;53.330;-6.288;2023-08-12T04:25:14;6.03;;;1.60;;
74749;SDS011;63269;53.330;-6.288;2023-08-12T04:27:39;3.65;;;1.33;;
74749;SDS011;63269;53.330;-6.288;2023-08-12T04:30:05;5.43;;;1.60;;
74749;SDS011;63269;53.330;-6.288;2023-08-12T04:32:31;5.55;;;1.55;;
74749;SDS011;63269;53.330;-6.288;2023-08-12T04:34:56;5.68;;;1.80;;
74749;SDS011;63269;53.330;-6.288;2023-08-12T04:37:22;4.18;;;1.30;;
74749;SDS011;63269;53.330;-6.288;2023-08-12T04:39:49;5.22;;;2.00;;
74749;SDS011;63269;53.330;-6.288;2023-08-12T04:42:15;3.47;;;1.20;;
74749;SDS011;63269;53.330;-6.288;2023-08-12T04:44:41;5.32;;;1.20;;
74749;SDS011;63269;53.330;-6.288;2023-08-12T04:47:06;2.88;;;1.23;;
74749;SDS011;63269;53.330;-6.288;2023-08-12T04:49:31;6.20;;;1.85;;
74749;SDS011;63269;53.330;-6.288;2023-08-12T04:51:57;4.00;;;1.65;;
74749;SDS011;63269;53.330;-6.288;2023-08-12T04:54:23;3.65;;;1.25;;
74749;SDS011;63269;53.330;-6.288;2023-08-12T04:56:49;4.72;;;1.23;;
74749;SDS011;63269;53.330;-6.288;2023-08-12T04:59:14;4.03;;;1.50;;
74749;SDS011;63269;53.330;-6.288;2023-08-12T05:01:40;5.22;;;1.50;;
74749;SDS011;63269;53.330;-6.288;2023-08-12T05:04:05;3.80;;;1.20;;
74749;SDS011;63269;53.330;-6.288;2023-08-12T05:06:31;4.85;;;1.67;;
74749;SDS011;63269;53.330;-6.288;2023-08-12T05:08:56;7.38;;;1.58;;
74749;SDS011;63269;53.330;-6.288;2023-08-12T05:11:21;5.78;;;2.72;;
74749;SDS011;63269;53.330;-6.288;2023-08-12T05:13:47;6.22;;;1.67;;
74749;SDS011;63269;53.330;-6.288;2023-08-12T05:16:12;4.55;;;1.60;;
74749;SDS011;63269;53.330;-6.288;2023-08-12T05:18:38;5.88;;;1.58;;
74749;SDS011;63269;53.330;-6.288;2023-08-12T05:21:03;4.18;;;1.88;;
74749;SDS011;63269;53.330;-6.288;2023-08-12T05:23:28;2.53;;;1.30;;
74749;SDS011;63269;53.330;-6.288;2023-08-12T05:25:53;4.73;;;1.57;;
74749;SDS011;63269;53.330;-6.288;2023-08-12T05:28:19;4.53;;;1.63;;
74749;SDS011;63269;53.330;-6.288;2023-08-12T05:30:44;5.82;;;1.38;;
74749;SDS011;63269;53.330;-6.288;2023-08-12T05:33:10;4.50;;;1.10;;
74749;SDS011;63269;53.330;-6.288;2023-08-12T05:35:35;4.32;;;1.35;;
74749;SDS011;63269;53.330;-6.288;2023-08-12T05:38:01;4.60;;;1.67;;
74749;SDS011;63269;53.330;-6.288;2023-08-12T05:40:27;3.53;;;1.05;;
74749;SDS011;63269;53.330;-6.288;2023-08-12T05:42:52;4.32;;;1.33;;
74749;SDS011;63269;53.330;-6.288;2023-08-12T05:45:18;3.78;;;1.40;;
74749;SDS011;63269;53.330;-6.288;2023-08-12T05:47:43;3.55;;;1.02;;
74749;SDS011;63269;53.330;-6.288;2023-08-12T05:50:09;3.72;;;1.08;;
74749;SDS011;63269;53.330;-6.288;2023-08-12T05:52:34;2.83;;;0.98;;
74749;SDS011;63269;53.330;-6.288;2023-08-12T05:55:00;3.33;;;1.48;;
74749;SDS011;63269;53.330;-6.288;2023-08-12T05:57:25;3.22;;;1.40;;
74749;SDS011;63269;53.330;-6.288;2023-08-12T05:59:51;3.75;;;1.52;;
74749;SDS011;63269;53.330;-6.288;2023-08-12T06:02:16;5.55;;;1.40;;
74749;SDS011;63269;53.330;-6.288;2023-08-12T06:04:42;3.85;;;1.15;;
74749;SDS011;63269;53.330;-6.288;2023-08-12T06:07:07;8.32;;;2.15;;
74749;SDS011;63269;53.330;-6.288;2023-08-12T06:09:33;3.85;;;0.93;;
74749;SDS011;63269;53.330;-6.288;2023-08-12T06:11:58;5.63;;;1.85;;
74749;SDS011;63269;53.330;-6.288;2023-08-12T06:14:24;3.90;;;1.10;;
74749;SDS011;63269;53.330;-6.288;2023-08-12T06:16:49;2.80;;;1.50;;
74749;SDS011;63269;53.330;-6.288;2023-08-12T06:19:14;3.88;;;1.17;;
74749;SDS011;63269;53.330;-6.288;2023-08-12T06:21:40;3.80;;;1.42;;
74749;SDS011;63269;53.330;-6.288;2023-08-12T06:24:05;3.78;;;1.05;;
74749;SDS011;63269;53.330;-6.288;2023-08-12T06:26:31;2.95;;;1.38;;
74749;SDS011;63269;53.330;-6.288;2023-08-12T06:28:56;3.65;;;1.05;;
74749;SDS011;63269;53.330;-6.288;2023-08-12T06:31:22;3.10;;;1.45;;
74749;SDS011;63269;53.330;-6.288;2023-08-12T06:33:47;4.20;;;1.67;;
74749;SDS011;63269;53.330;-6.288;2023-08-12T06:36:12;3.35;;;1.00;;
74749;SDS011;63269;53.330;-6.288;2023-08-12T06:38:38;3.22;;;1.30;;
74749;SDS011;63269;53.330;-6.288;2023-08-12T06:41:03;3.60;;;1.50;;
74749;SDS011;63269;53.330;-6.288;2023-08-12T06:43:29;3.63;;;1.20;;
74749;SDS011;63269;53.330;-6.288;2023-08-12T06:45:54;2.80;;;1.20;;
74749;SDS011;63269;53.330;-6.288;2023-08-12T06:48:19;4.63;;;1.35;;
74749;SDS011;63269;53.330;-6.288;2023-08-12T06:50:45;3.00;;;1.20;;
74749;SDS011;63269;53.330;-6.288;2023-08-12T06:53:10;3.67;;;1.55;;
74749;SDS011;63269;53.330;-6.288;2023-08-12T06:55:35;2.90;;;0.98;;
74749;SDS011;63269;53.330;-6.288;2023-08-12T06:58:01;4.93;;;1.02;;
74749;SDS011;63269;53.330;-6.288;2023-08-12T07:00:27;5.03;;;1.30;;
74749;SDS011;63269;53.330;-6.288;2023-08-12T07:02:52;2.67;;;1.30;;
74749;SDS011;63269;53.330;-6.288;2023-08-12T07:05:18;2.33;;;0.80;;
74749;SDS011;63269;53.330;-6.288;2023-08-12T07:07:43;4.10;;;1.60;;
74749;SDS011;63269;53.330;-6.288;2023-08-12T07:10:09;1.98;;;0.77;;
74749;SDS011;63269;53.330;-6.288;2023-08-12T07:12:35;4.38;;;1.00;;
74749;SDS011;63269;53.330;-6.288;2023-08-12T07:15:00;3.28;;;1.40;;
74749;SDS011;63269;53.330;-6.288;2023-08-12T07:17:25;3.17;;;0.98;;
74749;SDS011;63269;53.330;-6.288;2023-08-12T07:19:51;4.20;;;1.00;;
74749;SDS011;63269;53.330;-6.288;2023-08-12T07:22:16;2.65;;;0.98;;
74749;SDS011;63269;53.330;-6.288;2023-08-12T07:24:44;2.67;;;1.25;;
74749;SDS011;63269;53.330;-6.288;2023-08-12T07:27:10;2.65;;;1.02;;
74749;SDS011;63269;53.330;-6.288;2023-08-12T07:29:35;2.67;;;0.80;;
74749;SDS011;63269;53.330;-6.288;2023-08-12T07:32:00;3.72;;;0.82;;
74749;SDS011;63269;53.330;-6.288;2023-08-12T07:34:26;3.72;;;1.30;;
74749;SDS011;63269;53.330;-6.288;2023-08-12T07:36:51;4.25;;;1.23;;
74749;SDS011;63269;53.330;-6.288;2023-08-12T07:39:17;8.13;;;1.30;;
74749;SDS011;63269;53.330;-6.288;2023-08-12T07:41:42;3.42;;;1.40;;
74749;SDS011;63269;53.330;-6.288;2023-08-12T07:44:08;6.68;;;1.42;;
74749;SDS011;63269;53.330;-6.288;2023-08-12T07:46:33;4.00;;;0.90;;
74749;SDS011;63269;53.330;-6.288;2023-08-12T07:48:58;5.13;;;1.15;;
74749;SDS011;63269;53.330;-6.288;2023-08-12T07:51:24;6.38;;;1.42;;
74749;SDS011;63269;53.330;-6.288;2023-08-12T07:53:50;4.53;;;2.00;;
74749;SDS011;63269;53.330;-6.288;2023-08-12T07:56:15;10.25;;;1.60;;
74749;SDS011;63269;53.330;-6.288;2023-08-12T07:58:40;2.63;;;1.17;;
74749;SDS011;63269;53.330;-6.288;2023-08-12T08:01:06;5.47;;;1.55;;
74749;SDS011;63269;53.330;-6.288;2023-08-12T08:03:33;2.35;;;1.10;;
74749;SDS011;63269;53.330;-6.288;2023-08-12T08:05:59;4.68;;;1.02;;
74749;SDS011;63269;53.330;-6.288;2023-08-12T08:08:24;4.75;;;1.70;;
74749;SDS011;63269;53.330;-6.288;2023-08-12T08:10:50;2.50;;;0.98;;
74749;SDS011;63269;53.330;-6.288;2023-08-12T08:13:15;2.15;;;1.00;;
74749;SDS011;63269;53.330;-6.288;2023-08-12T08:15:40;3.10;;;1.00;;
74749;SDS011;63269;53.330;-6.288;2023-08-12T08:18:06;4.28;;;1.30;;
74749;SDS011;63269;53.330;-6.288;2023-08-12T08:20:31;5.03;;;1.40;;
74749;SDS011;63269;53.330;-6.288;2023-08-12T08:22:57;4.80;;;1.52;;
74749;SDS011;63269;53.330;-6.288;2023-08-12T08:25:22;3.45;;;0.95;;
74749;SDS011;63269;53.330;-6.288;2023-08-12T08:27:48;4.43;;;1.13;;
74749;SDS011;63269;53.330;-6.288;2023-08-12T08:30:13;4.63;;;1.17;;
74749;SDS011;63269;53.330;-6.288;2023-08-12T08:32:38;5.03;;;1.05;;
74749;SDS011;63269;53.330;-6.288;2023-08-12T08:35:04;3.00;;;1.10;;
74749;SDS011;63269;53.330;-6.288;2023-08-12T08:37:30;3.10;;;1.10;;
74749;SDS011;63269;53.330;-6.288;2023-08-12T08:39:55;2.70;;;1.08;;
74749;SDS011;63269;53.330;-6.288;2023-08-12T08:42:21;4.93;;;1.67;;
74749;SDS011;63269;53.330;-6.288;2023-08-12T08:44:49;3.72;;;1.10;;
74749;SDS011;63269;53.330;-6.288;2023-08-12T08:47:19;3.80;;;0.93;;
74749;SDS011;63269;53.330;-6.288;2023-08-12T08:49:50;3.67;;;0.90;;
74749;SDS011;63269;53.330;-6.288;2023-08-12T08:52:16;4.70;;;1.17;;
74749;SDS011;63269;53.330;-6.288;2023-08-12T08:54:42;2.40;;;1.05;;
74749;SDS011;63269;53.330;-6.288;2023-08-12T08:57:08;3.28;;;1.20;;
74749;SDS011;63269;53.330;-6.288;2023-08-12T08:59:34;4.15;;;1.15;;
74749;SDS011;63269;53.330;-6.288;2023-08-12T09:01:59;3.70;;;1.27;;
74749;SDS011;63269;53.330;-6.288;2023-08-12T09:04:25;2.15;;;0.90;;
74749;SDS011;63269;53.330;-6.288;2023-08-12T09:06:52;2.63;;;0.90;;
74749;SDS011;63269;53.330;-6.288;2023-08-12T09:09:19;2.30;;;0.80;;
74749;SDS011;63269;53.330;-6.288;2023-08-12T09:11:45;2.80;;;1.73;;
74749;SDS011;63269;53.330;-6.288;2023-08-12T09:14:13;3.20;;;1.02;;
74749;SDS011;63269;53.330;-6.288;2023-08-12T09:16:39;3.30;;;0.98;;
74749;SDS011;63269;53.330;-6.288;2023-08-12T09:19:05;3.22;;;0.90;;
74749;SDS011;63269;53.330;-6.288;2023-08-12T09:21:31;2.63;;;0.95;;
74749;SDS011;63269;53.330;-6.288;2023-08-12T09:23:56;2.78;;;1.00;;
74749;SDS011;63269;53.330;-6.288;2023-08-12T09:26:21;1.98;;;0.90;;
74749;SDS011;63269;53.330;-6.288;2023-08-12T09:28:48;3.35;;;1.05;;
74749;SDS011;63269;53.330;-6.288;2023-08-12T09:31:23;1.98;;;1.10;;
74749;SDS011;63269;53.330;-6.288;2023-08-12T09:33:52;2.22;;;1.10;;
74749;SDS011;63269;53.330;-6.288;2023-08-12T09:36:18;3.03;;;1.00;;
74749;SDS011;63269;53.330;-6.288;2023-08-12T09:38:44;2.97;;;1.08;;
74749;SDS011;63269;53.330;-6.288;2023-08-12T09:41:10;3.33;;;1.02;;
74749;SDS011;63269;53.330;-6.288;2023-08-12T09:43:39;2.28;;;1.25;;
74749;SDS011;63269;53.330;-6.288;2023-08-12T09:46:06;4.13;;;0.98;;
74749;SDS011;63269;53.330;-6.288;2023-08-12T09:48:35;4.10;;;1.35;;
74749;SDS011;63269;53.330;-6.288;2023-08-12T09:51:00;2.25;;;0.82;;
74749;SDS011;63269;53.330;-6.288;2023-08-12T09:53:26;2.55;;;1.00;;
74749;SDS011;63269;53.330;-6.288;2023-08-12T09:55:52;4.47;;;1.17;;
74749;SDS011;63269;53.330;-6.288;2023-08-12T09:58:18;3.20;;;0.82;;
74749;SDS011;63269;53.330;-6.288;2023-08-12T10:00:48;2.60;;;0.85;;
74749;SDS011;63269;53.330;-6.288;2023-08-12T10:03:14;2.55;;;0.80;;
74749;SDS011;63269;53.330;-6.288;2023-08-12T10:05:41;3.47;;;1.13;;
74749;SDS011;63269;53.330;-6.288;2023-08-12T10:08:08;0.98;;;0.73;;
74749;SDS011;63269;53.330;-6.288;2023-08-12T10:10:35;3.80;;;0.90;;
74749;SDS011;63269;53.330;-6.288;2023-08-12T10:13:01;1.80;;;0.90;;
74749;SDS011;63269;53.330;-6.288;2023-08-12T10:15:27;2.60;;;0.93;;
74749;SDS011;63269;53.330;-6.288;2023-08-12T10:17:52;2.10;;;0.65;;
74749;SDS011;63269;53.330;-6.288;2023-08-12T10:20:23;1.50;;;0.70;;
74749;SDS011;63269;53.330;-6.288;2023-08-12T10:22:50;1.83;;;0.80;;
74749;SDS011;63269;53.330;-6.288;2023-08-12T10:25:17;3.45;;;0.70;;
74749;SDS011;63269;53.330;-6.288;2023-08-12T10:27:46;3.42;;;0.85;;
74749;SDS011;63269;53.330;-6.288;2023-08-12T10:30:12;2.20;;;0.70;;
74749;SDS011;63269;53.330;-6.288;2023-08-12T10:32:38;2.00;;;1.00;;
74749;SDS011;63269;53.330;-6.288;2023-08-12T10:35:04;2.35;;;0.68;;
74749;SDS011;63269;53.330;-6.288;2023-08-12T10:37:33;1.67;;;0.80;;
74749;SDS011;63269;53.330;-6.288;2023-08-12T10:40:03;1.73;;;0.70;;
74749;SDS011;63269;53.330;-6.288;2023-08-12T10:45:18;1.35;;;0.80;;
74749;SDS011;63269;53.330;-6.288;2023-08-12T10:50:25;1.60;;;0.70;;
74749;SDS011;63269;53.330;-6.288;2023-08-12T10:52:52;1.55;;;0.73;;
74749;SDS011;63269;53.330;-6.288;2023-08-12T10:55:19;2.30;;;0.70;;
74749;SDS011;63269;53.330;-6.288;2023-08-12T10:57:45;1.92;;;1.02;;
74749;SDS011;63269;53.330;-6.288;2023-08-12T11:00:18;2.78;;;0.80;;
74749;SDS011;63269;53.330;-6.288;2023-08-12T11:02:56;2.08;;;0.70;;
74749;SDS011;63269;53.330;-6.288;2023-08-12T11:05:23;1.00;;;0.60;;
74749;SDS011;63269;53.330;-6.288;2023-08-12T11:07:58;1.98;;;0.77;;
74749;SDS011;63269;53.330;-6.288;2023-08-12T11:10:32;1.77;;;0.82;;
74749;SDS011;63269;53.330;-6.288;2023-08-12T11:12:58;2.70;;;0.98;;
74749;SDS011;63269;53.330;-6.288;2023-08-12T11:15:31;0.90;;;0.65;;
74749;SDS011;63269;53.330;-6.288;2023-08-12T11:17:59;1.73;;;0.55;;
74749;SDS011;63269;53.330;-6.288;2023-08-12T11:20:27;1.30;;;0.60;;
74749;SDS011;63269;53.330;-6.288;2023-08-12T11:22:54;2.83;;;0.80;;
74749;SDS011;63269;53.330;-6.288;2023-08-12T11:25:20;2.00;;;0.80;;
74749;SDS011;63269;53.330;-6.288;2023-08-12T11:27:45;1.50;;;0.60;;
74749;SDS011;63269;53.330;-6.288;2023-08-12T11:30:15;1.10;;;0.65;;
74749;SDS011;63269;53.330;-6.288;2023-08-12T11:32:42;2.00;;;0.63;;
74749;SDS011;63269;53.330;-6.288;2023-08-12T11:35:09;1.33;;;0.63;;
74749;SDS011;63269;53.330;-6.288;2023-08-12T11:37:39;3.10;;;0.80;;
74749;SDS011;63269;53.330;-6.288;2023-08-12T11:40:06;1.23;;;0.90;;
74749;SDS011;63269;53.330;-6.288;2023-08-12T11:42:39;1.17;;;0.60;;
74749;SDS011;63269;53.330;-6.288;2023-08-12T11:45:06;2.28;;;0.77;;
74749;SDS011;63269;53.330;-6.288;2023-08-12T11:47:32;2.85;;;0.70;;
74749;SDS011;63269;53.330;-6.288;2023-08-12T11:49:58;2.17;;;0.60;;
74749;SDS011;63269;53.330;-6.288;2023-08-12T11:52:24;1.88;;;0.85;;
74749;SDS011;63269;53.330;-6.288;2023-08-12T11:54:50;2.03;;;0.77;;
74749;SDS011;63269;53.330;-6.288;2023-08-12T11:57:16;1.63;;;0.70;;
74749;SDS011;63269;53.330;-6.288;2023-08-12T11:59:42;4.05;;;1.10;;
74749;SDS011;63269;53.330;-6.288;2023-08-12T12:02:08;1.10;;;0.68;;
74749;SDS011;63269;53.330;-6.288;2023-08-12T12:04:35;2.63;;;1.00;;
74749;SDS011;63269;53.330;-6.288;2023-08-12T12:07:01;2.47;;;0.70;;
74749;SDS011;63269;53.330;-6.288;2023-08-12T12:09:31;2.13;;;1.10;;
74749;SDS011;63269;53.330;-6.288;2023-08-12T12:11:59;2.30;;;0.80;;
74749;SDS011;63269;53.330;-6.288;2023-08-12T12:14:25;1.85;;;0.60;;
74749;SDS011;63269;53.330;-6.288;2023-08-12T12:16:51;1.67;;;0.80;;
74749;SDS011;63269;53.330;-6.288;2023-08-12T12:19:20;1.90;;;0.70;;
74749;SDS011;63269;53.330;-6.288;2023-08-12T12:21:50;2.00;;;0.70;;
74749;SDS011;63269;53.330;-6.288;2023-08-12T12:24:17;1.55;;;0.80;;
74749;SDS011;63269;53.330;-6.288;2023-08-12T12:26:43;1.42;;;0.57;;
74749;SDS011;63269;53.330;-6.288;2023-08-12T12:29:10;2.55;;;0.75;;
74749;SDS011;63269;53.330;-6.288;2023-08-12T12:31:39;1.13;;;0.50;;
74749;SDS011;63269;53.330;-6.288;2023-08-12T12:34:06;2.13;;;0.90;;
74749;SDS011;63269;53.330;-6.288;2023-08-12T12:36:34;1.90;;;0.65;;
74749;SDS011;63269;53.330;-6.288;2023-08-12T12:39:01;1.33;;;0.80;;
74749;SDS011;63269;53.330;-6.288;2023-08-12T12:41:27;2.45;;;0.70;;
74749;SDS011;63269;53.330;-6.288;2023-08-12T12:43:53;1.67;;;1.15;;
74749;SDS011;63269;53.330;-6.288;2023-08-12T12:46:18;1.33;;;0.60;;
74749;SDS011;63269;53.330;-6.288;2023-08-12T12:48:44;2.28;;;1.02;;
74749;SDS011;63269;53.330;-6.288;2023-08-12T12:51:11;1.48;;;0.68;;
74749;SDS011;63269;53.330;-6.288;2023-08-12T12:53:37;1.33;;;0.70;;
74749;SDS011;63269;53.330;-6.288;2023-08-12T12:56:03;3.67;;;0.90;;
74749;SDS011;63269;53.330;-6.288;2023-08-12T12:58:31;1.92;;;0.70;;
74749;SDS011;63269;53.330;-6.288;2023-08-12T13:00:58;6.93;;;0.70;;
74749;SDS011;63269;53.330;-6.288;2023-08-12T13:03:24;2.35;;;0.80;;
74749;SDS011;63269;53.330;-6.288;2023-08-12T13:05:49;3.83;;;0.70;;
74749;SDS011;63269;53.330;-6.288;2023-08-12T13:08:15;1.73;;;0.80;;
74749;SDS011;63269;53.330;-6.288;2023-08-12T13:10:40;6.50;;;5.13;;
74749;SDS011;63269;53.330;-6.288;2023-08-12T13:13:06;31.40;;;28.10;;
74749;SDS011;63269;53.330;-6.288;2023-08-12T13:15:31;43.65;;;37.47;;
74749;SDS011;63269;53.330;-6.288;2023-08-12T13:17:57;47.60;;;38.42;;
74749;SDS011;63269;53.330;-6.288;2023-08-12T13:20:22;46.88;;;38.00;;
74749;SDS011;63269;53.330;-6.288;2023-08-12T13:22:48;66.03;;;56.40;;
74749;SDS011;63269;53.330;-6.288;2023-08-12T13:25:13;115.05;;;90.05;;
74749;SDS011;63269;53.330;-6.288;2023-08-12T13:27:39;118.38;;;62.60;;
74749;SDS011;63269;53.330;-6.288;2023-08-12T13:30:04;77.82;;;50.95;;
74749;SDS011;63269;53.330;-6.288;2023-08-12T13:32:31;90.43;;;61.88;;
74749;SDS011;63269;53.330;-6.288;2023-08-12T13:34:56;93.05;;;66.10;;
74749;SDS011;63269;53.330;-6.288;2023-08-12T13:37:22;74.00;;;48.55;;
74749;SDS011;63269;53.330;-6.288;2023-08-12T13:39:47;69.53;;;48.47;;
74749;SDS011;63269;53.330;-6.288;2023-08-12T13:42:13;73.70;;;45.97;;
74749;SDS011;63269;53.330;-6.288;2023-08-12T13:44:38;77.43;;;47.58;;
74749;SDS011;63269;53.330;-6.288;2023-08-12T13:47:03;72.43;;;44.35;;
74749;SDS011;63269;53.330;-6.288;2023-08-12T13:49:29;65.90;;;43.75;;
74749;SDS011;63269;53.330;-6.288;2023-08-12T13:51:54;65.93;;;43.65;;
74749;SDS011;63269;53.330;-6.288;2023-08-12T13:54:20;63.67;;;41.75;;
74749;SDS011;63269;53.330;-6.288;2023-08-12T13:56:45;62.92;;;43.10;;
74749;SDS011;63269;53.330;-6.288;2023-08-12T13:59:11;62.33;;;42.38;;
74749;SDS011;63269;53.330;-6.288;2023-08-12T14:01:36;59.13;;;39.92;;
74749;SDS011;63269;53.330;-6.288;2023-08-12T14:04:02;56.70;;;39.97;;
74749;SDS011;63269;53.330;-6.288;2023-08-12T14:06:28;52.75;;;39.15;;
74749;SDS011;63269;53.330;-6.288;2023-08-12T14:08:53;56.40;;;38.33;;
74749;SDS011;63269;53.330;-6.288;2023-08-12T14:11:19;54.38;;;38.42;;
74749;SDS011;63269;53.330;-6.288;2023-08-12T14:13:45;51.50;;;38.42;;
74749;SDS011;63269;53.330;-6.288;2023-08-12T14:16:11;57.83;;;38.40;;
74749;SDS011;63269;53.330;-6.288;2023-08-12T14:18:37;50.22;;;36.90;;
74749;SDS011;63269;53.330;-6.288;2023-08-12T14:21:02;46.83;;;33.95;;
74749;SDS011;63269;53.330;-6.288;2023-08-12T14:23:27;49.72;;;34.88;;
74749;SDS011;63269;53.330;-6.288;2023-08-12T14:25:53;45.50;;;32.70;;
74749;SDS011;63269;53.330;-6.288;2023-08-12T14:28:18;45.08;;;32.13;;
74749;SDS011;63269;53.330;-6.288;2023-08-12T14:30:44;47.17;;;33.50;;
74749;SDS011;63269;53.330;-6.288;2023-08-12T14:33:09;44.47;;;30.98;;